sensor_id;sensor_type;location;lat;lon;timestamp;temperature;humidity
15556;DHT22;7879;48.660;9.116;2023-02-26T00:00:34;0.10;99.90
15556;DHT22;7879;48.660;9.116;2023-02-26T00:03:01;0.20;99.90
15556;DHT22;7879;48.660;9.116;2023-02-26T00:05:27;0.10;99.90
15556;DHT22;7879;48.660;9.116;2023-02-26T00:07:54;0.10;99.90
15556;DHT22;7879;48.660;9.116;2023-02-26T00:10:21;0.10;99.90
15556;DHT22;7879;48.660;9.116;2023-02-26T00:12:48;0.10;99.90
15556;DHT22;7879;48.660;9.116;2023-02-26T00:15:15;0.10;99.90
15556;DHT22;7879;48.660;9.116;2023-02-26T00:20:18;0.00;99.90
15556;DHT22;7879;48.660;9.116;2023-02-26T00:22:45;0.00;99.90
15556;DHT22;7879;48.660;9.116;2023-02-26T00:25:12;0.00;99.90
15556;DHT22;7879;48.660;9.116;2023-02-26T00:27:40;-0.10;99.90
15556;DHT22;7879;48.660;9.116;2023-02-26T00:30:08;-0.10;99.90
15556;DHT22;7879;48.660;9.116;2023-02-26T00:32:35;-0.10;99.90
15556;DHT22;7879;48.660;9.116;2023-02-26T00:35:02;-0.10;99.90
15556;DHT22;7879;48.660;9.116;2023-02-26T00:40:22;-0.10;99.90
15556;DHT22;7879;48.660;9.116;2023-02-26T00:42:52;-0.10;99.90
15556;DHT22;7879;48.660;9.116;2023-02-26T00:45:19;-0.10;99.90
15556;DHT22;7879;48.660;9.116;2023-02-26T00:50:47;-0.20;99.90
15556;DHT22;7879;48.660;9.116;2023-02-26T00:53:35;-0.20;99.90
15556;DHT22;7879;48.660;9.116;2023-02-26T00:56:06;-0.20;99.90
15556;DHT22;7879;48.660;9.116;2023-02-26T00:58:33;-0.20;99.90
15556;DHT22;7879;48.660;9.116;2023-02-26T01:01:00;-0.20;99.90
15556;DHT22;7879;48.660;9.116;2023-02-26T01:03:27;-0.20;99.90
15556;DHT22;7879;48.660;9.116;2023-02-26T01:05:56;-0.20;99.90
15556;DHT22;7879;48.660;9.116;2023-02-26T01:08:29;-0.30;99.90
15556;DHT22;7879;48.660;9.116;2023-02-26T01:10:58;-0.30;99.90
15556;DHT22;7879;48.660;9.116;2023-02-26T01:13:25;-0.30;99.90
15556;DHT22;7879;48.660;9.116;2023-02-26T01:15:56;-0.30;99.90
15556;DHT22;7879;48.660;9.116;2023-02-26T01:18:34;-0.30;99.90
15556;DHT22;7879;48.660;9.116;2023-02-26T01:21:04;-0.40;99.90
15556;DHT22;7879;48.660;9.116;2023-02-26T01:23:43;-0.40;99.90
15556;DHT22;7879;48.660;9.116;2023-02-26T01:26:22;-0.40;99.90
15556;DHT22;7879;48.660;9.116;2023-02-26T01:28:50;-0.40;99.90
15556;DHT22;7879;48.660;9.116;2023-02-26T01:31:38;-0.50;99.90
15556;DHT22;7879;48.660;9.116;2023-02-26T01:34:22;-0.50;99.90
15556;DHT22;7879;48.660;9.116;2023-02-26T01:37:11;-0.50;99.90
15556;DHT22;7879;48.660;9.116;2023-02-26T01:42:35;-0.50;99.90
15556;DHT22;7879;48.660;9.116;2023-02-26T01:45:14;-0.50;99.90
15556;DHT22;7879;48.660;9.116;2023-02-26T01:47:48;-0.50;99.90
15556;DHT22;7879;48.660;9.116;2023-02-26T01:50:23;-0.60;99.90
15556;DHT22;7879;48.660;9.116;2023-02-26T01:53:24;-0.60;99.90
15556;DHT22;7879;48.660;9.116;2023-02-26T01:56:15;-0.60;99.90
15556;DHT22;7879;48.660;9.116;2023-02-26T01:58:44;-0.60;99.90
15556;DHT22;7879;48.660;9.116;2023-02-26T02:01:12;-0.60;99.90
15556;DHT22;7879;48.660;9.116;2023-02-26T02:03:40;-0.60;99.90
15556;DHT22;7879;48.660;9.116;2023-02-26T02:06:21;-0.70;99.90
15556;DHT22;7879;48.660;9.116;2023-02-26T02:08:48;-0.70;99.90
15556;DHT22;7879;48.660;9.116;2023-02-26T02:11:15;-0.70;99.90
15556;DHT22;7879;48.660;9.116;2023-02-26T02:21:49;-0.80;99.90
15556;DHT22;7879;48.660;9.116;2023-02-26T02:32:21;-0.80;99.90
15556;DHT22;7879;48.660;9.116;2023-02-26T02:35:37;-0.80;99.90
15556;DHT22;7879;48.660;9.116;2023-02-26T02:38:04;-0.80;99.90
15556;DHT22;7879;48.660;9.116;2023-02-26T02:40:39;-0.90;99.90
15556;DHT22;7879;48.660;9.116;2023-02-26T02:43:10;-0.90;99.90
15556;DHT22;7879;48.660;9.116;2023-02-26T02:48:11;-1.00;99.90
15556;DHT22;7879;48.660;9.116;2023-02-26T02:50:43;-1.00;99.90
15556;DHT22;7879;48.660;9.116;2023-02-26T02:56:12;-1.00;99.90
15556;DHT22;7879;48.660;9.116;2023-02-26T02:58:46;-1.00;99.90
15556;DHT22;7879;48.660;9.116;2023-02-26T03:01:18;-1.00;99.90
15556;DHT22;7879;48.660;9.116;2023-02-26T03:06:26;-1.00;99.90
15556;DHT22;7879;48.660;9.116;2023-02-26T03:08:53;-1.00;99.90
15556;DHT22;7879;48.660;9.116;2023-02-26T03:11:20;-1.20;99.90
15556;DHT22;7879;48.660;9.116;2023-02-26T03:13:49;-1.10;99.90
15556;DHT22;7879;48.660;9.116;2023-02-26T03:19:21;-1.10;99.90
15556;DHT22;7879;48.660;9.116;2023-02-26T03:22:00;-1.10;99.90
15556;DHT22;7879;48.660;9.116;2023-02-26T03:24:39;-1.10;99.90
15556;DHT22;7879;48.660;9.116;2023-02-26T03:30:13;-1.20;99.90
15556;DHT22;7879;48.660;9.116;2023-02-26T03:35:17;-1.20;99.90
15556;DHT22;7879;48.660;9.116;2023-02-26T03:37:48;-1.20;99.90
15556;DHT22;7879;48.660;9.116;2023-02-26T03:40:24;-1.20;99.90
15556;DHT22;7879;48.660;9.116;2023-02-26T03:43:14;-1.10;99.90
15556;DHT22;7879;48.660;9.116;2023-02-26T03:45:46;-1.10;99.90
15556;DHT22;7879;48.660;9.116;2023-02-26T03:48:18;-1.10;99.90
15556;DHT22;7879;48.660;9.116;2023-02-26T03:50:49;-1.10;99.90
15556;DHT22;7879;48.660;9.116;2023-02-26T03:54:18;-1.20;99.90
15556;DHT22;7879;48.660;9.116;2023-02-26T03:56:39;-1.10;99.90
15556;DHT22;7879;48.660;9.116;2023-02-26T03:59:07;-1.30;99.90
15556;DHT22;7879;48.660;9.116;2023-02-26T04:01:42;-1.20;99.90
15556;DHT22;7879;48.660;9.116;2023-02-26T04:04:42;-1.20;99.90
15556;DHT22;7879;48.660;9.116;2023-02-26T04:07:14;-1.30;99.90
15556;DHT22;7879;48.660;9.116;2023-02-26T04:09:45;-1.30;99.90
15556;DHT22;7879;48.660;9.116;2023-02-26T04:12:12;-1.30;99.90
15556;DHT22;7879;48.660;9.116;2023-02-26T04:14:39;-1.40;99.90
15556;DHT22;7879;48.660;9.116;2023-02-26T04:17:06;-1.40;99.90
15556;DHT22;7879;48.660;9.116;2023-02-26T04:19:33;-1.30;99.90
15556;DHT22;7879;48.660;9.116;2023-02-26T04:21:59;-1.30;99.90
15556;DHT22;7879;48.660;9.116;2023-02-26T04:24:26;-1.30;99.90
15556;DHT22;7879;48.660;9.116;2023-02-26T04:26:53;-1.30;99.90
15556;DHT22;7879;48.660;9.116;2023-02-26T04:29:20;-1.30;99.90
15556;DHT22;7879;48.660;9.116;2023-02-26T04:31:46;-1.40;99.90
15556;DHT22;7879;48.660;9.116;2023-02-26T04:34:13;-1.40;99.90
15556;DHT22;7879;48.660;9.116;2023-02-26T04:36:40;-1.40;99.90
15556;DHT22;7879;48.660;9.116;2023-02-26T04:39:07;-1.40;99.90
15556;DHT22;7879;48.660;9.116;2023-02-26T04:41:37;-1.40;99.90
15556;DHT22;7879;48.660;9.116;2023-02-26T04:44:04;-1.40;99.90
15556;DHT22;7879;48.660;9.116;2023-02-26T04:46:32;-1.40;99.90
15556;DHT22;7879;48.660;9.116;2023-02-26T04:48:59;-1.50;99.90
15556;DHT22;7879;48.660;9.116;2023-02-26T04:51:26;-1.50;99.90
15556;DHT22;7879;48.660;9.116;2023-02-26T04:53:52;-1.50;99.90
15556;DHT22;7879;48.660;9.116;2023-02-26T04:56:19;-1.50;99.90
15556;DHT22;7879;48.660;9.116;2023-02-26T04:58:46;-1.50;99.90
15556;DHT22;7879;48.660;9.116;2023-02-26T05:01:13;-1.50;99.90
15556;DHT22;7879;48.660;9.116;2023-02-26T05:03:40;-1.50;99.90
15556;DHT22;7879;48.660;9.116;2023-02-26T05:06:07;-1.50;99.90
15556;DHT22;7879;48.660;9.116;2023-02-26T05:08:34;-1.60;99.90
15556;DHT22;7879;48.660;9.116;2023-02-26T05:11:01;-1.60;99.90
15556;DHT22;7879;48.660;9.116;2023-02-26T05:13:27;-1.60;99.90
15556;DHT22;7879;48.660;9.116;2023-02-26T05:15:54;-1.60;99.90
15556;DHT22;7879;48.660;9.116;2023-02-26T05:18:21;-1.70;99.90
15556;DHT22;7879;48.660;9.116;2023-02-26T05:20:55;-1.70;99.90
15556;DHT22;7879;48.660;9.116;2023-02-26T05:23:22;-1.70;99.90
15556;DHT22;7879;48.660;9.116;2023-02-26T05:25:48;-1.80;99.90
15556;DHT22;7879;48.660;9.116;2023-02-26T05:28:15;-1.80;99.90
15556;DHT22;7879;48.660;9.116;2023-02-26T05:30:42;-1.80;99.90
15556;DHT22;7879;48.660;9.116;2023-02-26T05:33:09;-1.80;99.90
15556;DHT22;7879;48.660;9.116;2023-02-26T05:35:36;-1.80;99.90
15556;DHT22;7879;48.660;9.116;2023-02-26T05:38:03;-1.80;99.90
15556;DHT22;7879;48.660;9.116;2023-02-26T05:40:29;-1.80;99.90
15556;DHT22;7879;48.660;9.116;2023-02-26T05:42:56;-1.80;99.90
15556;DHT22;7879;48.660;9.116;2023-02-26T05:45:23;-1.80;99.90
15556;DHT22;7879;48.660;9.116;2023-02-26T05:47:50;-1.80;99.90
15556;DHT22;7879;48.660;9.116;2023-02-26T05:50:17;-1.80;99.90
15556;DHT22;7879;48.660;9.116;2023-02-26T05:52:44;-1.90;99.90
15556;DHT22;7879;48.660;9.116;2023-02-26T05:55:10;-1.80;99.90
15556;DHT22;7879;48.660;9.116;2023-02-26T05:57:37;-1.90;99.90
15556;DHT22;7879;48.660;9.116;2023-02-26T06:00:06;-2.00;99.90
15556;DHT22;7879;48.660;9.116;2023-02-26T06:02:33;-2.00;99.90
15556;DHT22;7879;48.660;9.116;2023-02-26T06:05:00;-2.00;99.90
15556;DHT22;7879;48.660;9.116;2023-02-26T06:07:26;-2.00;99.90
15556;DHT22;7879;48.660;9.116;2023-02-26T06:09:53;-2.00;99.90
15556;DHT22;7879;48.660;9.116;2023-02-26T06:12:20;-2.00;99.90
15556;DHT22;7879;48.660;9.116;2023-02-26T06:14:47;-2.10;99.90
15556;DHT22;7879;48.660;9.116;2023-02-26T06:17:13;-2.20;99.90
15556;DHT22;7879;48.660;9.116;2023-02-26T06:19:40;-2.20;99.90
15556;DHT22;7879;48.660;9.116;2023-02-26T06:22:07;-2.20;99.90
15556;DHT22;7879;48.660;9.116;2023-02-26T06:24:34;-2.20;99.90
15556;DHT22;7879;48.660;9.116;2023-02-26T06:27:00;-2.20;99.90
15556;DHT22;7879;48.660;9.116;2023-02-26T06:29:27;-2.30;99.90
15556;DHT22;7879;48.660;9.116;2023-02-26T06:31:54;-2.20;99.90
15556;DHT22;7879;48.660;9.116;2023-02-26T06:34:21;-2.30;99.90
15556;DHT22;7879;48.660;9.116;2023-02-26T06:36:48;-2.30;99.90
15556;DHT22;7879;48.660;9.116;2023-02-26T06:39:15;-2.30;99.90
15556;DHT22;7879;48.660;9.116;2023-02-26T06:41:42;-2.40;99.90
15556;DHT22;7879;48.660;9.116;2023-02-26T06:44:09;-2.40;99.90
15556;DHT22;7879;48.660;9.116;2023-02-26T06:46:37;-2.30;99.90
15556;DHT22;7879;48.660;9.116;2023-02-26T06:49:04;-2.30;99.90
15556;DHT22;7879;48.660;9.116;2023-02-26T06:51:31;-2.30;99.90
15556;DHT22;7879;48.660;9.116;2023-02-26T06:53:58;-2.40;99.90
15556;DHT22;7879;48.660;9.116;2023-02-26T06:56:24;-2.30;99.90
15556;DHT22;7879;48.660;9.116;2023-02-26T06:58:52;-2.30;99.90
15556;DHT22;7879;48.660;9.116;2023-02-26T07:01:18;-2.30;99.90
15556;DHT22;7879;48.660;9.116;2023-02-26T07:03:45;-2.30;99.90
15556;DHT22;7879;48.660;9.116;2023-02-26T07:06:12;-2.30;99.90
15556;DHT22;7879;48.660;9.116;2023-02-26T07:08:53;-2.30;99.90
15556;DHT22;7879;48.660;9.116;2023-02-26T07:11:21;-2.30;99.90
15556;DHT22;7879;48.660;9.116;2023-02-26T07:13:48;-2.20;99.90
15556;DHT22;7879;48.660;9.116;2023-02-26T07:16:17;-2.30;99.90
15556;DHT22;7879;48.660;9.116;2023-02-26T07:18:43;-2.30;99.90
15556;DHT22;7879;48.660;9.116;2023-02-26T07:21:10;-2.20;99.90
15556;DHT22;7879;48.660;9.116;2023-02-26T07:23:37;-2.20;99.90
15556;DHT22;7879;48.660;9.116;2023-02-26T07:26:04;-2.30;99.90
15556;DHT22;7879;48.660;9.116;2023-02-26T07:28:31;-2.20;99.90
15556;DHT22;7879;48.660;9.116;2023-02-26T07:30:57;-2.20;99.90
15556;DHT22;7879;48.660;9.116;2023-02-26T07:33:24;-2.10;99.90
15556;DHT22;7879;48.660;9.116;2023-02-26T07:35:54;-2.10;99.90
15556;DHT22;7879;48.660;9.116;2023-02-26T07:38:20;-2.10;99.90
15556;DHT22;7879;48.660;9.116;2023-02-26T07:40:47;-2.00;99.90
15556;DHT22;7879;48.660;9.116;2023-02-26T07:43:14;-1.90;99.90
15556;DHT22;7879;48.660;9.116;2023-02-26T07:45:41;-1.90;99.90
15556;DHT22;7879;48.660;9.116;2023-02-26T07:48:08;-2.00;99.90
15556;DHT22;7879;48.660;9.116;2023-02-26T07:50:34;-1.90;99.90
15556;DHT22;7879;48.660;9.116;2023-02-26T07:53:01;-1.90;99.90
15556;DHT22;7879;48.660;9.116;2023-02-26T07:55:28;-1.90;99.90
15556;DHT22;7879;48.660;9.116;2023-02-26T07:57:55;-1.80;99.90
15556;DHT22;7879;48.660;9.116;2023-02-26T08:00:22;-2.00;99.90
15556;DHT22;7879;48.660;9.116;2023-02-26T08:02:48;-1.80;99.90
15556;DHT22;7879;48.660;9.116;2023-02-26T08:05:15;-1.80;99.90
15556;DHT22;7879;48.660;9.116;2023-02-26T08:07:42;-1.80;99.90
15556;DHT22;7879;48.660;9.116;2023-02-26T08:10:10;-1.80;99.90
15556;DHT22;7879;48.660;9.116;2023-02-26T08:12:37;-1.90;99.90
15556;DHT22;7879;48.660;9.116;2023-02-26T08:15:04;-1.80;99.90
15556;DHT22;7879;48.660;9.116;2023-02-26T08:17:32;-1.80;99.90
15556;DHT22;7879;48.660;9.116;2023-02-26T08:19:59;-1.80;99.90
15556;DHT22;7879;48.660;9.116;2023-02-26T08:22:26;-1.90;99.90
15556;DHT22;7879;48.660;9.116;2023-02-26T08:24:53;-1.80;99.90
15556;DHT22;7879;48.660;9.116;2023-02-26T08:27:19;-1.60;99.90
15556;DHT22;7879;48.660;9.116;2023-02-26T08:29:46;-1.60;99.90
15556;DHT22;7879;48.660;9.116;2023-02-26T08:32:17;-1.50;99.90
15556;DHT22;7879;48.660;9.116;2023-02-26T08:34:46;-1.40;99.90
15556;DHT22;7879;48.660;9.116;2023-02-26T08:37:13;-1.30;99.90
15556;DHT22;7879;48.660;9.116;2023-02-26T08:39:40;-1.50;99.90
15556;DHT22;7879;48.660;9.116;2023-02-26T08:42:07;-1.50;99.90
15556;DHT22;7879;48.660;9.116;2023-02-26T08:44:35;-1.40;99.90
15556;DHT22;7879;48.660;9.116;2023-02-26T08:47:02;-1.50;99.90
15556;DHT22;7879;48.660;9.116;2023-02-26T08:49:29;-1.50;99.90
15556;DHT22;7879;48.660;9.116;2023-02-26T08:51:56;-1.40;99.90
15556;DHT22;7879;48.660;9.116;2023-02-26T08:54:23;-1.40;99.90
15556;DHT22;7879;48.660;9.116;2023-02-26T08:56:50;-1.40;99.90
15556;DHT22;7879;48.660;9.116;2023-02-26T08:59:18;-1.50;99.90
15556;DHT22;7879;48.660;9.116;2023-02-26T09:01:45;-1.60;99.90
15556;DHT22;7879;48.660;9.116;2023-02-26T09:04:12;-1.60;99.90
15556;DHT22;7879;48.660;9.116;2023-02-26T09:06:39;-1.70;99.90
15556;DHT22;7879;48.660;9.116;2023-02-26T09:09:06;-1.80;99.90
15556;DHT22;7879;48.660;9.116;2023-02-26T09:11:33;-1.80;99.90
15556;DHT22;7879;48.660;9.116;2023-02-26T09:14:03;-1.70;99.90
15556;DHT22;7879;48.660;9.116;2023-02-26T09:16:31;-1.70;99.90
15556;DHT22;7879;48.660;9.116;2023-02-26T09:19:00;-1.60;99.90
15556;DHT22;7879;48.660;9.116;2023-02-26T09:21:27;-1.70;99.90
15556;DHT22;7879;48.660;9.116;2023-02-26T09:23:54;-1.60;99.90
15556;DHT22;7879;48.660;9.116;2023-02-26T09:26:21;-1.60;99.90
15556;DHT22;7879;48.660;9.116;2023-02-26T09:28:48;-1.60;99.90
15556;DHT22;7879;48.660;9.116;2023-02-26T09:31:15;-1.60;99.90
15556;DHT22;7879;48.660;9.116;2023-02-26T09:33:43;-1.70;99.90
15556;DHT22;7879;48.660;9.116;2023-02-26T09:36:09;-1.70;99.90
15556;DHT22;7879;48.660;9.116;2023-02-26T09:38:36;-1.60;99.90
15556;DHT22;7879;48.660;9.116;2023-02-26T09:41:09;-1.60;99.90
15556;DHT22;7879;48.660;9.116;2023-02-26T09:49:55;-1.50;99.90
15556;DHT22;7879;48.660;9.116;2023-02-26T09:57:48;-1.50;99.90
15556;DHT22;7879;48.660;9.116;2023-02-26T10:00:29;-1.60;99.90
15556;DHT22;7879;48.660;9.116;2023-02-26T10:11:52;-1.50;99.90
15556;DHT22;7879;48.660;9.116;2023-02-26T10:14:26;-1.50;99.90
15556;DHT22;7879;48.660;9.116;2023-02-26T10:16:58;-1.50;99.90
15556;DHT22;7879;48.660;9.116;2023-02-26T10:19:31;-1.40;99.90
15556;DHT22;7879;48.660;9.116;2023-02-26T10:22:21;-1.50;99.90
15556;DHT22;7879;48.660;9.116;2023-02-26T10:25:12;-1.40;99.90
15556;DHT22;7879;48.660;9.116;2023-02-26T10:30:50;-1.30;99.90
15556;DHT22;7879;48.660;9.116;2023-02-26T10:36:29;-1.30;99.90
15556;DHT22;7879;48.660;9.116;2023-02-26T10:39:01;-1.30;99.90
15556;DHT22;7879;48.660;9.116;2023-02-26T10:41:31;-1.30;99.90
15556;DHT22;7879;48.660;9.116;2023-02-26T10:44:08;-1.30;99.90
15556;DHT22;7879;48.660;9.116;2023-02-26T10:46:45;-1.30;99.90
15556;DHT22;7879;48.660;9.116;2023-02-26T10:52:18;-1.20;99.90
15556;DHT22;7879;48.660;9.116;2023-02-26T10:55:23;-1.20;99.90
15556;DHT22;7879;48.660;9.116;2023-02-26T11:00:41;-1.20;99.90
15556;DHT22;7879;48.660;9.116;2023-02-26T11:03:17;-1.20;99.90
15556;DHT22;7879;48.660;9.116;2023-02-26T11:05:44;-1.20;99.90
15556;DHT22;7879;48.660;9.116;2023-02-26T11:08:25;-1.20;99.90
15556;DHT22;7879;48.660;9.116;2023-02-26T11:10:57;-1.20;99.90
15556;DHT22;7879;48.660;9.116;2023-02-26T11:13:26;-1.10;99.90
15556;DHT22;7879;48.660;9.116;2023-02-26T11:15:56;-1.10;99.90
15556;DHT22;7879;48.660;9.116;2023-02-26T11:18:27;-1.00;99.90
15556;DHT22;7879;48.660;9.116;2023-02-26T11:20:58;-0.90;99.90
15556;DHT22;7879;48.660;9.116;2023-02-26T11:23:28;-0.80;99.90
15556;DHT22;7879;48.660;9.116;2023-02-26T11:26:07;-0.80;99.90
15556;DHT22;7879;48.660;9.116;2023-02-26T11:28:37;-0.80;99.90
15556;DHT22;7879;48.660;9.116;2023-02-26T11:31:10;-0.80;99.90
15556;DHT22;7879;48.660;9.116;2023-02-26T11:33:39;-0.80;99.90
15556;DHT22;7879;48.660;9.116;2023-02-26T11:36:14;-0.70;99.90
15556;DHT22;7879;48.660;9.116;2023-02-26T11:38:51;-0.70;99.90
15556;DHT22;7879;48.660;9.116;2023-02-26T11:41:18;-0.60;99.90
15556;DHT22;7879;48.660;9.116;2023-02-26T11:43:48;-0.70;99.90
15556;DHT22;7879;48.660;9.116;2023-02-26T11:46:23;-0.70;99.90
15556;DHT22;7879;48.660;9.116;2023-02-26T11:48:52;-0.70;99.90
15556;DHT22;7879;48.660;9.116;2023-02-26T11:51:24;-0.70;99.90
15556;DHT22;7879;48.660;9.116;2023-02-26T11:53:54;-0.60;99.90
15556;DHT22;7879;48.660;9.116;2023-02-26T11:58:53;-0.60;99.90
15556;DHT22;7879;48.660;9.116;2023-02-26T12:01:28;-0.50;99.90
15556;DHT22;7879;48.660;9.116;2023-02-26T12:03:59;-0.50;99.90
15556;DHT22;7879;48.660;9.116;2023-02-26T12:06:26;-0.50;99.90
15556;DHT22;7879;48.660;9.116;2023-02-26T12:08:53;-0.50;99.90
15556;DHT22;7879;48.660;9.116;2023-02-26T12:16:42;-0.50;99.90
15556;DHT22;7879;48.660;9.116;2023-02-26T12:22:26;-0.50;99.90
15556;DHT22;7879;48.660;9.116;2023-02-26T12:45:09;-0.40;99.90
15556;DHT22;7879;48.660;9.116;2023-02-26T12:50:45;-0.40;99.90
15556;DHT22;7879;48.660;9.116;2023-02-26T12:56:12;-0.30;99.90
15556;DHT22;7879;48.660;9.116;2023-02-26T12:59:06;-0.40;99.90
15556;DHT22;7879;48.660;9.116;2023-02-26T13:01:58;-0.30;99.90
15556;DHT22;7879;48.660;9.116;2023-02-26T13:04:52;-0.40;99.90
15556;DHT22;7879;48.660;9.116;2023-02-26T13:15:49;-0.30;99.90
15556;DHT22;7879;48.660;9.116;2023-02-26T13:21:07;-0.20;99.90
15556;DHT22;7879;48.660;9.116;2023-02-26T13:23:55;-0.30;99.90
15556;DHT22;7879;48.660;9.116;2023-02-26T13:26:23;-0.30;99.90
15556;DHT22;7879;48.660;9.116;2023-02-26T13:29:44;-0.10;99.90
15556;DHT22;7879;48.660;9.116;2023-02-26T13:32:04;-0.20;99.90
15556;DHT22;7879;48.660;9.116;2023-02-26T13:34:53;-0.20;99.90
15556;DHT22;7879;48.660;9.116;2023-02-26T13:37:26;-0.20;99.90
15556;DHT22;7879;48.660;9.116;2023-02-26T13:42:48;-0.20;99.90
15556;DHT22;7879;48.660;9.116;2023-02-26T13:51:08;-0.20;99.90
15556;DHT22;7879;48.660;9.116;2023-02-26T14:01:49;0.00;99.90
15556;DHT22;7879;48.660;9.116;2023-02-26T14:07:44;0.10;99.90
15556;DHT22;7879;48.660;9.116;2023-02-26T14:10:12;0.10;99.90
15556;DHT22;7879;48.660;9.116;2023-02-26T14:12:37;0.20;99.90
15556;DHT22;7879;48.660;9.116;2023-02-26T14:17:51;0.20;99.90
15556;DHT22;7879;48.660;9.116;2023-02-26T14:20:28;0.30;99.90
15556;DHT22;7879;48.660;9.116;2023-02-26T14:33:38;0.40;99.90
15556;DHT22;7879;48.660;9.116;2023-02-26T14:36:16;0.40;99.90
15556;DHT22;7879;48.660;9.116;2023-02-26T14:38:43;0.40;99.90
15556;DHT22;7879;48.660;9.116;2023-02-26T14:41:27;0.50;99.90
15556;DHT22;7879;48.660;9.116;2023-02-26T14:44:07;0.50;99.90
15556;DHT22;7879;48.660;9.116;2023-02-26T14:46:37;0.60;99.90
15556;DHT22;7879;48.660;9.116;2023-02-26T14:49:17;0.60;99.90
15556;DHT22;7879;48.660;9.116;2023-02-26T14:52:21;0.60;99.90
15556;DHT22;7879;48.660;9.116;2023-02-26T15:00:35;0.60;99.90
15556;DHT22;7879;48.660;9.116;2023-02-26T15:09:48;0.70;99.90
15556;DHT22;7879;48.660;9.116;2023-02-26T15:12:55;0.70;99.90
15556;DHT22;7879;48.660;9.116;2023-02-26T15:15:12;0.70;99.90
15556;DHT22;7879;48.660;9.116;2023-02-26T15:18:04;0.70;99.90
15556;DHT22;7879;48.660;9.116;2023-02-26T15:23:20;0.60;99.90
15556;DHT22;7879;48.660;9.116;2023-02-26T15:25:50;0.60;99.90
15556;DHT22;7879;48.660;9.116;2023-02-26T15:28:35;0.60;99.90
15556;DHT22;7879;48.660;9.116;2023-02-26T15:31:04;0.60;99.90
15556;DHT22;7879;48.660;9.116;2023-02-26T15:33:32;0.60;99.90
15556;DHT22;7879;48.660;9.116;2023-02-26T15:36:03;0.60;99.90
15556;DHT22;7879;48.660;9.116;2023-02-26T15:38:39;0.50;99.90
15556;DHT22;7879;48.660;9.116;2023-02-26T15:41:07;0.50;99.90
15556;DHT22;7879;48.660;9.116;2023-02-26T15:43:34;0.50;99.90
15556;DHT22;7879;48.660;9.116;2023-02-26T15:46:02;0.40;99.90
15556;DHT22;7879;48.660;9.116;2023-02-26T15:48:36;0.50;99.90
15556;DHT22;7879;48.660;9.116;2023-02-26T15:51:07;0.40;99.90
15556;DHT22;7879;48.660;9.116;2023-02-26T15:53:46;0.40;99.90
15556;DHT22;7879;48.660;9.116;2023-02-26T15:56:17;0.40;99.90
15556;DHT22;7879;48.660;9.116;2023-02-26T15:58:52;0.40;99.90
15556;DHT22;7879;48.660;9.116;2023-02-26T16:01:22;0.40;99.90
15556;DHT22;7879;48.660;9.116;2023-02-26T16:03:52;0.30;99.90
15556;DHT22;7879;48.660;9.116;2023-02-26T16:06:27;0.30;99.90
15556;DHT22;7879;48.660;9.116;2023-02-26T16:08:55;0.40;99.90
15556;DHT22;7879;48.660;9.116;2023-02-26T16:11:23;0.40;99.90
15556;DHT22;7879;48.660;9.116;2023-02-26T16:13:53;0.40;99.90
15556;DHT22;7879;48.660;9.116;2023-02-26T16:16:41;0.40;99.90
15556;DHT22;7879;48.660;9.116;2023-02-26T16:19:14;0.40;99.90
15556;DHT22;7879;48.660;9.116;2023-02-26T16:21:42;0.40;99.90
15556;DHT22;7879;48.660;9.116;2023-02-26T16:24:15;0.40;99.90
15556;DHT22;7879;48.660;9.116;2023-02-26T16:26:49;0.40;99.90
15556;DHT22;7879;48.660;9.116;2023-02-26T16:29:23;0.40;99.90
15556;DHT22;7879;48.660;9.116;2023-02-26T16:31:53;0.40;99.90
15556;DHT22;7879;48.660;9.116;2023-02-26T16:34:48;0.30;99.90
15556;DHT22;7879;48.660;9.116;2023-02-26T16:47:49;0.20;99.90
15556;DHT22;7879;48.660;9.116;2023-02-26T16:50:25;0.20;99.90
15556;DHT22;7879;48.660;9.116;2023-02-26T16:53:04;0.20;99.90
15556;DHT22;7879;48.660;9.116;2023-02-26T16:55:35;0.20;99.90
15556;DHT22;7879;48.660;9.116;2023-02-26T16:58:04;0.20;99.90
15556;DHT22;7879;48.660;9.116;2023-02-26T17:00:33;0.20;99.90
15556;DHT22;7879;48.660;9.116;2023-02-26T17:03:11;0.20;99.90
15556;DHT22;7879;48.660;9.116;2023-02-26T17:05:45;0.10;99.90
15556;DHT22;7879;48.660;9.116;2023-02-26T17:08:17;0.10;99.90
15556;DHT22;7879;48.660;9.116;2023-02-26T17:10:52;0.10;99.90
15556;DHT22;7879;48.660;9.116;2023-02-26T17:13:41;0.10;99.90
15556;DHT22;7879;48.660;9.116;2023-02-26T17:16:10;0.10;99.90
15556;DHT22;7879;48.660;9.116;2023-02-26T17:18:38;0.00;99.90
15556;DHT22;7879;48.660;9.116;2023-02-26T17:21:05;0.00;99.90
15556;DHT22;7879;48.660;9.116;2023-02-26T17:23:35;0.00;99.90
15556;DHT22;7879;48.660;9.116;2023-02-26T17:26:03;0.10;99.90
15556;DHT22;7879;48.660;9.116;2023-02-26T17:28:34;0.00;99.90
15556;DHT22;7879;48.660;9.116;2023-02-26T17:31:03;0.00;99.90
15556;DHT22;7879;48.660;9.116;2023-02-26T17:33:29;0.00;99.90
15556;DHT22;7879;48.660;9.116;2023-02-26T17:35:59;0.00;99.90
15556;DHT22;7879;48.660;9.116;2023-02-26T17:40:55;-0.10;99.90
15556;DHT22;7879;48.660;9.116;2023-02-26T17:43:24;-0.10;99.90
15556;DHT22;7879;48.660;9.116;2023-02-26T17:45:50;-0.10;99.90
15556;DHT22;7879;48.660;9.116;2023-02-26T17:48:17;-0.10;99.90
15556;DHT22;7879;48.660;9.116;2023-02-26T17:50:50;-0.10;99.90
15556;DHT22;7879;48.660;9.116;2023-02-26T17:53:18;-0.20;99.90
15556;DHT22;7879;48.660;9.116;2023-02-26T17:55:47;-0.10;99.90
15556;DHT22;7879;48.660;9.116;2023-02-26T17:58:17;-0.20;99.90
15556;DHT22;7879;48.660;9.116;2023-02-26T18:00:45;-0.20;99.90
15556;DHT22;7879;48.660;9.116;2023-02-26T18:03:16;-0.20;99.90
15556;DHT22;7879;48.660;9.116;2023-02-26T18:05:43;-0.20;99.90
15556;DHT22;7879;48.660;9.116;2023-02-26T18:08:21;-0.20;99.90
15556;DHT22;7879;48.660;9.116;2023-02-26T18:10:50;-0.20;99.90
15556;DHT22;7879;48.660;9.116;2023-02-26T18:13:17;-0.20;99.90
15556;DHT22;7879;48.660;9.116;2023-02-26T18:15:44;-0.30;99.90
15556;DHT22;7879;48.660;9.116;2023-02-26T18:18:12;-0.30;99.90
15556;DHT22;7879;48.660;9.116;2023-02-26T18:20:40;-0.30;99.90
15556;DHT22;7879;48.660;9.116;2023-02-26T18:23:07;-0.40;99.90
15556;DHT22;7879;48.660;9.116;2023-02-26T18:25:34;-0.40;99.90
15556;DHT22;7879;48.660;9.116;2023-02-26T18:28:02;-0.40;99.90
15556;DHT22;7879;48.660;9.116;2023-02-26T18:30:33;-0.40;99.90
15556;DHT22;7879;48.660;9.116;2023-02-26T18:33:00;-0.40;99.90
15556;DHT22;7879;48.660;9.116;2023-02-26T18:35:29;-0.50;99.90
15556;DHT22;7879;48.660;9.116;2023-02-26T18:37:56;-0.50;99.90
15556;DHT22;7879;48.660;9.116;2023-02-26T18:40:25;-0.60;99.90
15556;DHT22;7879;48.660;9.116;2023-02-26T18:42:52;-0.60;99.90
15556;DHT22;7879;48.660;9.116;2023-02-26T18:45:19;-0.50;99.90
15556;DHT22;7879;48.660;9.116;2023-02-26T18:47:47;-0.60;99.90
15556;DHT22;7879;48.660;9.116;2023-02-26T18:50:15;-0.60;99.90
15556;DHT22;7879;48.660;9.116;2023-02-26T18:52:44;-0.60;99.90
15556;DHT22;7879;48.660;9.116;2023-02-26T18:55:14;-0.60;99.90
15556;DHT22;7879;48.660;9.116;2023-02-26T18:57:52;-0.60;99.90
15556;DHT22;7879;48.660;9.116;2023-02-26T19:00:26;-0.60;99.90
15556;DHT22;7879;48.660;9.116;2023-02-26T19:02:54;-0.60;99.90
15556;DHT22;7879;48.660;9.116;2023-02-26T19:05:21;-0.60;99.90
15556;DHT22;7879;48.660;9.116;2023-02-26T19:07:53;-0.60;99.90
15556;DHT22;7879;48.660;9.116;2023-02-26T19:10:21;-0.60;99.90
15556;DHT22;7879;48.660;9.116;2023-02-26T19:12:48;-0.70;99.90
15556;DHT22;7879;48.660;9.116;2023-02-26T19:15:16;-0.60;99.90
15556;DHT22;7879;48.660;9.116;2023-02-26T19:17:43;-0.70;99.90
15556;DHT22;7879;48.660;9.116;2023-02-26T19:20:11;-0.70;99.90